Accueil
METAR-TAF:

METAR-TAF

Aéroports :

Pigg's Peak, Swaziland

latitude: 25-58-04S, longitude: 31-15-03E, altitude: 1099 m

Observation

Le bulletin a été fait il y a 2 heures et 3 minutes, à 08:00 UTC
Vent 4 kt de est
Température 15°C
Humidité 67%
Pression 1030 hPa

METAR: FDPP 300800Z AUTO 08004KT //// // ////// 15/09 Q1030

Heure: 12:03 (10:03 UTC)


TAF: absent

Observations et prévisions météorologiques de plus de 4000 aéroports (messages METAR et TAF).

Les stations disponibles sont représentées par des disques jaunes et rouges sur la carte.

Passer la souris dessus pour voir le nom de la station.

Cliquer dessus pour voir les observations et prévisions météorologiques.

Pour changer de carte: cliquez sur les boutons verts avec une croix noire pour zoomer, sur le bouton vert avec un tiret pour effectuer un zoom arrière, ou sur les flèches vertes pour les cartes adjacentes.


METAR-TAF: